Time;durP1;ratioP1;P1;durP2;ratioP2;P2;SDS_P1;SDS_P2;PMS_P1;PMS_P2;Temp;Humidity;BMP_temperature;BMP_pressure;BME280_temperature;BME280_humidity;BME280_pressure;Samples;Min_cycle;Max_cycle;Signal;HPM_P1;HPM_P2
2023/02/01 00:09:35;;;;;;;15.15;7.70;;;;;;;;;;20838892;28;20478;-59
2023/02/01 00:19:37;;;;;;;19.08;7.43;;;;;;;;;;20838492;28;20056;-58
2023/02/01 00:29:40;;;;;;;15.30;8.20;;;;;;;;;;20837328;28;20068;-59
2023/02/01 00:39:42;;;;;;;19.92;8.13;;;;;;;;;;20835568;28;20474;-57
2023/02/01 00:49:46;;;;;;;14.23;7.13;;;;;;;;;;20834454;28;20103;-60
2023/02/01 00:59:48;;;;;;;15.05;7.32;;;;;;;;;;20835801;28;20059;-58
2023/02/01 01:09:51;;;;;;;14.50;7.22;;;;;;;;;;20833230;28;20056;-57
2023/02/01 01:19:53;;;;;;;14.07;8.23;;;;;;;;;;20835227;28;20134;-59
2023/02/01 01:29:55;;;;;;;12.10;7.03;;;;;;;;;;20832177;28;20041;-60
2023/02/01 01:39:57;;;;;;;15.68;7.75;;;;;;;;;;20832245;28;20448;-58
2023/02/01 01:49:59;;;;;;;13.35;6.45;;;;;;;;;;20830682;28;20449;-58
2023/02/01 02:00:06;;;;;;;15.88;6.95;;;;;;;;;;20831429;28;20375;-59
2023/02/01 02:10:13;;;;;;;11.60;7.32;;;;;;;;;;20831276;28;20049;-59
2023/02/01 02:20:21;;;;;;;14.55;7.78;;;;;;;;;;20829651;28;20054;-59
2023/02/01 02:30:42;;;;;;;14.68;7.45;;;;;;;;;;20830595;28;20401;-59
2023/02/01 02:40:55;;;;;;;13.07;7.10;;;;;;;;;;20830144;28;20053;-57
2023/02/01 03:22:41;;;;;;;14.10;7.07;;;;;;;;;;20842424;28;20049;-59
2023/02/01 03:32:58;;;;;;;11.73;6.85;;;;;;;;;;20841914;28;20045;-59
2023/02/01 03:43:12;;;;;;;11.63;6.13;;;;;;;;;;20839758;28;20045;-58
2023/02/01 03:53:22;;;;;;;10.98;6.38;;;;;;;;;;20838985;28;20057;-60
2023/02/01 04:03:28;;;;;;;12.25;6.68;;;;;;;;;;20838474;28;20056;-58
2023/02/01 04:13:32;;;;;;;11.30;6.32;;;;;;;;;;20838411;28;20103;-58
2023/02/01 04:23:36;;;;;;;11.13;6.70;;;;;;;;;;20836921;28;20049;-58
2023/02/01 04:33:40;;;;;;;12.40;6.18;;;;;;;;;;20837361;28;20481;-59
2023/02/01 04:43:42;;;;;;;13.73;6.25;;;;;;;;;;20836422;28;20049;-59
2023/02/01 04:53:46;;;;;;;11.13;5.93;;;;;;;;;;20834022;28;20053;-58
2023/02/01 05:03:48;;;;;;;13.30;5.72;;;;;;;;;;20834783;28;20042;-60
2023/02/01 05:13:50;;;;;;;11.20;6.00;;;;;;;;;;20832852;28;20135;-59
2023/02/01 05:24:12;;;;;;;11.05;5.78;;;;;;;;;;20832808;28;20135;-58
2023/02/01 05:34:15;;;;;;;14.48;6.18;;;;;;;;;;20832858;28;20049;-58
2023/02/01 05:44:17;;;;;;;13.20;5.72;;;;;;;;;;20831076;28;20099;-59
2023/02/01 05:54:19;;;;;;;11.00;5.78;;;;;;;;;;20831408;28;20061;-59
2023/02/01 06:04:21;;;;;;;11.40;5.40;;;;;;;;;;20831698;28;20061;-59
2023/02/01 06:14:24;;;;;;;8.80;5.25;;;;;;;;;;20830961;28;20057;-58
2023/02/01 06:24:26;;;;;;;10.63;4.80;;;;;;;;;;20831336;28;20537;-59
2023/02/01 06:34:28;;;;;;;12.73;6.03;;;;;;;;;;20841165;28;20059;-58
2023/02/01 06:44:30;;;;;;;10.10;5.50;;;;;;;;;;20845319;28;20057;-58
2023/02/01 06:54:33;;;;;;;13.35;5.07;;;;;;;;;;20844561;28;20486;-58
2023/02/01 07:04:35;;;;;;;8.82;4.78;;;;;;;;;;20842767;28;20050;-59
2023/02/01 07:14:37;;;;;;;13.25;4.97;;;;;;;;;;20842535;28;20054;-58
2023/02/01 07:24:39;;;;;;;14.05;5.95;;;;;;;;;;20842220;28;20073;-59
2023/02/01 07:34:41;;;;;;;7.90;4.60;;;;;;;;;;20840834;28;20056;-59
2023/02/01 07:44:43;;;;;;;12.77;5.15;;;;;;;;;;20839524;28;20444;-59
2023/02/01 07:54:45;;;;;;;8.93;4.38;;;;;;;;;;20839657;28;20060;-58
2023/02/01 08:04:47;;;;;;;9.02;4.53;;;;;;;;;;20839171;28;20405;-60
2023/02/01 08:14:48;;;;;;;10.27;4.70;;;;;;;;;;20838365;28;20045;-61
2023/02/01 08:24:51;;;;;;;11.40;5.45;;;;;;;;;;20838252;28;20092;-59
2023/02/01 08:34:53;;;;;;;16.98;5.18;;;;;;;;;;20837047;28;20111;-61
2023/02/01 08:44:55;;;;;;;13.23;5.28;;;;;;;;;;20834911;28;20136;-58
2023/02/01 08:54:57;;;;;;;12.48;5.18;;;;;;;;;;20833059;28;20514;-60
2023/02/01 09:04:59;;;;;;;10.52;4.25;;;;;;;;;;20834431;28;20608;-59
2023/02/01 09:15:01;;;;;;;12.68;4.10;;;;;;;;;;20833741;28;20485;-59
2023/02/01 09:25:03;;;;;;;7.82;3.00;;;;;;;;;;20831751;28;20049;-58
2023/02/01 09:35:05;;;;;;;3.05;1.33;;;;;;;;;;20832447;28;20054;-59
2023/02/01 09:45:16;;;;;;;4.45;1.40;;;;;;;;;;20831935;28;20129;-60
2023/02/01 09:55:30;;;;;;;3.75;1.30;;;;;;;;;;20830284;28;20096;-59
2023/02/01 10:05:32;;;;;;;3.05;1.58;;;;;;;;;;20834721;28;20118;-60
2023/02/01 10:15:43;;;;;;;2.50;1.50;;;;;;;;;;20846044;28;20053;-59
2023/02/01 10:25:55;;;;;;;2.67;1.60;;;;;;;;;;20846886;28;20053;-58
2023/02/01 10:36:11;;;;;;;2.47;1.40;;;;;;;;;;20846044;28;20492;-59
2023/02/01 10:46:13;;;;;;;2.58;1.48;;;;;;;;;;20844940;28;20073;-59
2023/02/01 10:56:15;;;;;;;2.88;1.48;;;;;;;;;;20843290;28;20053;-60
2023/02/01 11:06:23;;;;;;;6.03;2.17;;;;;;;;;;20843823;28;20513;-59
2023/02/01 11:16:30;;;;;;;4.72;2.03;;;;;;;;;;20840772;28;20159;-59
2023/02/01 11:26:32;;;;;;;4.28;2.25;;;;;;;;;;20842343;28;20424;-60
2023/02/01 11:36:36;;;;;;;3.13;2.10;;;;;;;;;;20840743;28;20107;-59
2023/02/01 11:46:38;;;;;;;3.15;2.00;;;;;;;;;;20839151;28;20064;-58
2023/02/01 11:56:40;;;;;;;5.78;1.75;;;;;;;;;;20838786;28;20049;-58
2023/02/01 12:07:11;;;;;;;4.38;1.65;;;;;;;;;;20836932;28;20474;-59
2023/02/01 12:17:32;;;;;;;2.72;1.50;;;;;;;;;;20836028;28;20556;-59
2023/02/01 12:27:46;;;;;;;2.83;1.48;;;;;;;;;;20836237;28;20057;-60
2023/02/01 12:37:59;;;;;;;2.78;1.63;;;;;;;;;;20836935;28;20049;-59
2023/02/01 12:48:07;;;;;;;3.97;1.90;;;;;;;;;;20833373;28;20068;-58
2023/02/01 12:58:10;;;;;;;3.75;1.70;;;;;;;;;;20834672;28;20055;-59
2023/02/01 13:08:15;;;;;;;3.60;1.90;;;;;;;;;;20834437;28;20532;-61
2023/02/01 13:18:21;;;;;;;2.75;1.95;;;;;;;;;;20833582;28;20409;-59
2023/02/01 13:28:39;;;;;;;4.30;1.83;;;;;;;;;;20831977;28;20045;-60
2023/02/01 13:38:51;;;;;;;4.30;1.95;;;;;;;;;;20831753;28;20458;-61
2023/02/01 13:48:57;;;;;;;4.57;2.83;;;;;;;;;;20830955;28;20072;-60
2023/02/01 13:59:20;;;;;;;4.55;2.50;;;;;;;;;;20831583;28;20133;-61
2023/02/01 14:09:33;;;;;;;4.43;2.22;;;;;;;;;;20829478;28;20053;-61
2023/02/01 14:19:36;;;;;;;3.25;1.73;;;;;;;;;;20831799;28;20056;-60
2023/02/01 14:29:39;;;;;;;6.38;2.55;;;;;;;;;;20830101;28;20459;-59
2023/02/01 14:39:47;;;;;;;5.00;1.90;;;;;;;;;;20828590;28;20465;-59
2023/02/01 14:49:52;;;;;;;8.30;2.30;;;;;;;;;;20828677;28;20058;-60
2023/02/01 15:00:00;;;;;;;6.05;2.40;;;;;;;;;;20844479;28;20150;-59
2023/02/01 15:10:02;;;;;;;8.50;3.28;;;;;;;;;;20844232;28;20383;-60
2023/02/01 15:20:18;;;;;;;4.07;2.22;;;;;;;;;;20843572;28;20500;-60
2023/02/01 15:30:22;;;;;;;6.15;2.90;;;;;;;;;;20840920;28;20095;-59
2023/02/01 15:40:24;;;;;;;7.53;2.50;;;;;;;;;;20841216;28;20187;-59
2023/02/01 15:50:27;;;;;;;8.38;3.47;;;;;;;;;;20839681;28;20433;-59
2023/02/01 16:00:33;;;;;;;8.18;3.22;;;;;;;;;;20839617;28;20058;-59
2023/02/01 16:10:39;;;;;;;8.65;2.78;;;;;;;;;;20839036;28;20057;-59
2023/02/01 16:20:42;;;;;;;7.70;3.42;;;;;;;;;;20840849;28;20534;-59
2023/02/01 16:30:44;;;;;;;8.80;3.75;;;;;;;;;;20838123;28;20045;-59
2023/02/01 16:40:47;;;;;;;5.70;3.25;;;;;;;;;;20835404;28;20053;-60
2023/02/01 16:50:51;;;;;;;12.10;4.45;;;;;;;;;;20834800;28;20152;-59
2023/02/01 17:00:53;;;;;;;9.32;4.18;;;;;;;;;;20835193;28;20424;-61
2023/02/01 17:10:55;;;;;;;12.30;4.70;;;;;;;;;;20834555;28;20061;-59
2023/02/01 17:21:01;;;;;;;12.02;5.40;;;;;;;;;;20831829;28;20049;-60
2023/02/01 17:31:03;;;;;;;10.05;4.40;;;;;;;;;;20832805;28;20049;-66
2023/02/01 17:41:05;;;;;;;21.67;10.52;;;;;;;;;;20828954;28;20060;-63
2023/02/01 17:51:26;;;;;;;17.17;5.85;;;;;;;;;;20832076;28;20510;-58
2023/02/01 18:01:29;;;;;;;17.77;6.53;;;;;;;;;;20833708;28;20111;-65
2023/02/01 18:11:32;;;;;;;17.67;7.65;;;;;;;;;;20776659;28;20046;-63
2023/02/01 18:21:37;;;;;;;17.70;7.90;;;;;;;;;;20751529;28;20053;-61
2023/02/01 18:31:45;;;;;;;22.48;9.27;;;;;;;;;;20807220;28;20045;-61
2023/02/01 18:41:50;;;;;;;20.95;9.23;;;;;;;;;;20847576;28;20402;-65
2023/02/01 18:51:52;;;;;;;23.67;9.82;;;;;;;;;;20840173;28;20671;-63
2023/02/01 19:01:54;;;;;;;28.75;11.73;;;;;;;;;;20824237;28;20099;-64
2023/02/01 19:11:56;;;;;;;28.45;11.95;;;;;;;;;;20842353;28;20081;-64
2023/02/01 19:21:58;;;;;;;39.17;18.63;;;;;;;;;;20841187;28;20107;-64
2023/02/01 19:31:59;;;;;;;30.05;15.45;;;;;;;;;;20841734;28;20128;-62
2023/02/01 19:42:01;;;;;;;26.67;11.38;;;;;;;;;;20840577;28;20050;-63
2023/02/01 19:52:03;;;;;;;34.03;11.02;;;;;;;;;;20839395;28;20058;-61
2023/02/01 20:02:05;;;;;;;24.95;9.45;;;;;;;;;;20838394;28;20590;-59
2023/02/01 20:12:08;;;;;;;10.43;4.68;;;;;;;;;;20837749;28;20096;-63
2023/02/01 20:22:09;;;;;;;10.90;3.95;;;;;;;;;;20838012;28;20490;-64
2023/02/01 20:32:11;;;;;;;10.45;3.40;;;;;;;;;;20837137;28;20514;-64
2023/02/01 20:42:13;;;;;;;8.10;3.60;;;;;;;;;;20833940;28;20160;-61
2023/02/01 20:52:15;;;;;;;8.90;3.58;;;;;;;;;;20834162;28;20085;-60
2023/02/01 21:02:16;;;;;;;9.05;2.72;;;;;;;;;;20833985;28;20096;-62
2023/02/01 21:12:18;;;;;;;5.30;2.70;;;;;;;;;;20833256;28;20060;-61
2023/02/01 21:22:20;;;;;;;6.32;3.33;;;;;;;;;;20834045;28;20053;-62
2023/02/01 21:32:22;;;;;;;9.90;4.82;;;;;;;;;;20833279;28;20049;-63
2023/02/01 21:42:25;;;;;;;6.78;3.50;;;;;;;;;;20832146;28;20501;-59
2023/02/01 21:52:27;;;;;;;6.93;2.63;;;;;;;;;;20831198;28;20149;-62
2023/02/01 22:02:29;;;;;;;5.07;2.80;;;;;;;;;;20843687;28;20486;-60
2023/02/01 22:12:31;;;;;;;9.25;3.40;;;;;;;;;;20858792;28;20045;-61
2023/02/01 22:22:32;;;;;;;10.20;3.42;;;;;;;;;;20858884;28;20556;-62
2023/02/01 22:32:34;;;;;;;7.70;3.97;;;;;;;;;;20858104;28;20045;-62
2023/02/01 22:42:36;;;;;;;8.57;3.10;;;;;;;;;;20857731;28;20397;-63
2023/02/01 22:52:38;;;;;;;9.57;3.58;;;;;;;;;;20856152;28;20077;-62
2023/02/01 23:02:42;;;;;;;7.20;3.80;;;;;;;;;;20857091;28;20056;-62
2023/02/01 23:12:48;;;;;;;6.65;3.13;;;;;;;;;;20850652;28;20156;-61
2023/02/01 23:22:52;;;;;;;6.15;3.05;;;;;;;;;;20842058;28;20053;-63
2023/02/01 23:32:54;;;;;;;7.47;3.38;;;;;;;;;;20841911;28;20049;-61
2023/02/01 23:53:16;;;;;;;7.43;3.25;;;;;;;;;;20840723;28;20192;-60
